Time;durP1;ratioP1;P1;durP2;ratioP2;P2;SDS_P1;SDS_P2;PMS_P1;PMS_P2;Temp;Humidity;BMP_temperature;BMP_pressure;BME280_temperature;BME280_humidity;BME280_pressure;Samples;Min_cycle;Max_cycle;Signal;HPM_P1;HPM_P2
2021/03/09 00:01:53;;;;;;;;;;;;;;;2.94;100.00;99334.06;5113623;28;19935;-78
2021/03/09 00:04:20;;;;;;;;;;;;;;;2.91;100.00;99332.03;5106371;28;19931;-78
2021/03/09 00:06:46;;;;;;;;;;;;;;;2.86;100.00;99333.13;5113911;28;19924;-78
2021/03/09 00:09:13;;;;;;;;;;;;;;;3.05;100.00;99341.38;5096202;28;20416;-78
2021/03/09 00:11:39;;;;;;;;;;;;;;;3.04;100.00;99341.75;5113991;28;19930;-78
2021/03/09 00:14:06;;;;;;;;;;;;;;;3.00;100.00;99343.66;5113832;28;19965;-78
2021/03/09 00:16:32;;;;;;;;;;;;;;;2.96;100.00;99337.25;5114102;28;20010;-79
2021/03/09 00:18:58;;;;;;;;;;;;;;;2.94;100.00;99339.59;5113939;28;20325;-78
2021/03/09 00:21:25;;;;;;;;;;;;;;;2.89;100.00;99331.59;5114016;28;19928;-78
2021/03/09 00:23:51;;;;;;;;;;;;;;;2.89;100.00;99337.13;5113774;28;19932;-78
2021/03/09 00:26:23;;;;;;;;;;;;;;;2.96;100.00;99337.25;5114113;28;19928;-78
2021/03/09 00:28:49;;;;;;;;;;;;;;;2.97;100.00;99334.13;5102894;28;20394;-78
2021/03/09 00:31:16;;;;;;;;;;;;;;;3.01;100.00;99332.25;5112380;28;20020;-78
2021/03/09 00:33:42;;;;;;;;;;;;;;;3.11;100.00;99325.28;5111220;28;20026;-78
2021/03/09 00:36:08;;;;;;;;;;;;;;;2.96;100.00;99327.00;5113407;28;19924;-78
2021/03/09 00:38:35;;;;;;;;;;;;;;;2.99;100.00;99342.03;5113978;28;20297;-78
2021/03/09 00:41:01;;;;;;;;;;;;;;;2.92;100.00;99337.16;5113861;28;19952;-77
2021/03/09 00:43:28;;;;;;;;;;;;;;;2.94;100.00;99331.31;5112299;28;20389;-78
2021/03/09 00:45:55;;;;;;;;;;;;;;;2.90;100.00;99335.94;5113823;28;19924;-78
2021/03/09 00:48:22;;;;;;;;;;;;;;;2.77;100.00;99331.78;5112668;28;19932;-78
2021/03/09 00:50:49;;;;;;;;;;;;;;;2.71;100.00;99341.50;5113698;28;19931;-79
2021/03/09 00:53:16;;;;;;;;;;;;;;;2.59;100.00;99338.91;5113852;28;19923;-76
2021/03/09 00:55:42;;;;;;;;;;;;;;;2.49;100.00;99339.47;5113890;28;19924;-76
2021/03/09 00:58:08;;;;;;;;;;;;;;;2.52;100.00;99341.50;5113131;28;19924;-78
2021/03/09 01:00:35;;;;;;;;;;;;;;;2.42;100.00;99344.88;5112720;28;20366;-78
2021/03/09 01:03:02;;;;;;;;;;;;;;;2.19;100.00;99341.22;5113565;28;19928;-77
2021/03/09 01:05:28;;;;;;;;;;;;;;;2.14;100.00;99338.75;5113578;28;19923;-78
2021/03/09 01:07:55;;;;;;;;;;;;;;;2.06;100.00;99337.00;5112501;28;20003;-78
2021/03/09 01:10:21;;;;;;;;;;;;;;;1.98;100.00;99340.75;5113480;28;20032;-78
2021/03/09 01:12:48;;;;;;;;;;;;;;;1.82;100.00;99344.34;5113449;28;19924;-78
2021/03/09 01:15:15;;;;;;;;;;;;;;;1.73;100.00;99340.19;5116096;28;19928;-78
2021/03/09 01:17:41;;;;;;;;;;;;;;;1.52;100.00;99343.25;5117380;28;19923;-77
2021/03/09 01:20:08;;;;;;;;;;;;;;;1.47;100.00;99343.53;5117334;28;19924;-78
2021/03/09 01:22:35;;;;;;;;;;;;;;;1.36;100.00;99350.72;5117444;28;19923;-77
2021/03/09 01:25:02;;;;;;;;;;;;;;;1.31;100.00;99350.19;5116951;28;19998;-78
2021/03/09 01:27:28;;;;;;;;;;;;;;;1.32;100.00;99358.09;5082105;28;19924;-78
2021/03/09 01:29:55;;;;;;;;;;;;;;;1.27;100.00;99354.81;5117221;27;20270;-77
2021/03/09 01:32:22;;;;;;;;;;;;;;;1.27;100.00;99355.59;5114233;28;19928;-78
2021/03/09 01:34:48;;;;;;;;;;;;;;;1.16;100.00;99360.06;5115954;28;19928;-77
2021/03/09 01:37:15;;;;;;;;;;;;;;;1.17;100.00;99360.84;5116861;28;19931;-78
2021/03/09 01:39:41;;;;;;;;;;;;;;;1.08;100.00;99350.00;5116786;28;19934;-78
2021/03/09 01:42:08;;;;;;;;;;;;;;;1.11;100.00;99354.00;5099011;28;19970;-78
2021/03/09 01:44:34;;;;;;;;;;;;;;;1.05;100.00;99349.91;5116684;28;19927;-77
2021/03/09 01:47:02;;;;;;;;;;;;;;;0.96;100.00;99354.78;5115611;28;19976;-77
2021/03/09 01:49:36;;;;;;;;;;;;;;;1.00;100.00;99347.44;5116822;28;19930;-78
2021/03/09 01:52:04;;;;;;;;;;;;;;;0.94;100.00;99341.38;5098743;28;19923;-78
2021/03/09 01:54:31;;;;;;;;;;;;;;;0.99;100.00;99340.31;5116376;28;20026;-78
2021/03/09 01:56:58;;;;;;;;;;;;;;;1.00;100.00;99333.69;5116607;28;20256;-78
2021/03/09 01:59:26;;;;;;;;;;;;;;;0.92;100.00;99332.69;5114979;28;19927;-77
2021/03/09 02:01:53;;;;;;;;;;;;;;;0.76;100.00;99334.59;5116417;28;19943;-78
2021/03/09 02:04:19;;;;;;;;;;;;;;;0.80;100.00;99329.22;5116348;27;19930;-77
2021/03/09 02:06:46;;;;;;;;;;;;;;;0.99;100.00;99332.88;5098222;28;19981;-78
2021/03/09 02:09:13;;;;;;;;;;;;;;;1.07;100.00;99336.59;5116046;28;19924;-78
2021/03/09 02:11:50;;;;;;;;;;;;;;;1.26;100.00;99334.75;5116212;27;19923;-78
2021/03/09 02:14:25;;;;;;;;;;;;;;;1.32;100.00;99325.06;5115018;28;20496;-78
2021/03/09 02:16:58;;;;;;;;;;;;;;;1.28;100.00;99326.94;5114831;28;19944;-78
2021/03/09 02:19:42;;;;;;;;;;;;;;;1.40;100.00;99323.28;5116178;27;19931;-78
2021/03/09 02:22:12;;;;;;;;;;;;;;;1.45;100.00;99318.28;5114747;28;19928;-78
2021/03/09 02:24:57;;;;;;;;;;;;;;;1.32;100.00;99316.78;5115574;27;19924;-78
2021/03/09 02:27:42;;;;;;;;;;;;;;;1.20;100.00;99318.84;5115924;28;19951;-77
2021/03/09 02:30:09;;;;;;;;;;;;;;;1.19;100.00;99320.81;5115715;28;19946;-77
2021/03/09 02:32:41;;;;;;;;;;;;;;;1.19;100.00;99320.00;5114410;28;19930;-77
2021/03/09 02:35:10;;;;;;;;;;;;;;;1.16;100.00;99316.00;5114641;28;19923;-78
2021/03/09 02:37:38;;;;;;;;;;;;;;;1.12;100.00;99314.34;5097160;28;19928;-77
2021/03/09 02:40:06;;;;;;;;;;;;;;;1.09;100.00;99321.31;5115741;27;19969;-78
2021/03/09 02:42:37;;;;;;;;;;;;;;;0.99;100.00;99319.13;5114209;28;20098;-78
2021/03/09 02:45:04;;;;;;;;;;;;;;;0.94;100.00;99322.13;5115603;27;19969;-77
2021/03/09 02:47:32;;;;;;;;;;;;;;;0.93;100.00;99322.47;5115419;28;20339;-78
2021/03/09 02:50:06;;;;;;;;;;;;;;;0.84;100.00;99322.66;5114465;28;19930;-78
2021/03/09 02:52:33;;;;;;;;;;;;;;;0.78;100.00;99326.81;5115213;28;20028;-77
2021/03/09 02:55:00;;;;;;;;;;;;;;;0.66;100.00;99318.63;5115406;28;20351;-77
2021/03/09 02:57:27;;;;;;;;;;;;;;;0.57;100.00;99317.19;5115338;28;19931;-78
2021/03/09 02:59:55;;;;;;;;;;;;;;;0.55;100.00;99306.53;5113779;28;19923;-77
2021/03/09 03:02:22;;;;;;;;;;;;;;;0.50;100.00;99317.78;5105705;28;19935;-77
2021/03/09 03:04:49;;;;;;;;;;;;;;;0.44;100.00;99308.19;5111426;28;19924;-78
2021/03/09 03:07:18;;;;;;;;;;;;;;;0.52;100.00;99318.25;5113604;28;19930;-77
2021/03/09 03:09:45;;;;;;;;;;;;;;;0.48;100.00;99311.03;5113909;28;19973;-78
2021/03/09 03:12:13;;;;;;;;;;;;;;;0.58;100.00;99310.53;5114876;28;19981;-77
2021/03/09 03:14:43;;;;;;;;;;;;;;;0.61;100.00;99302.38;5115047;28;20336;-77
2021/03/09 03:17:10;;;;;;;;;;;;;;;0.68;100.00;99299.81;5114733;28;20014;-77
2021/03/09 03:19:46;;;;;;;;;;;;;;;0.56;100.00;99302.63;5115121;28;19927;-77
2021/03/09 03:22:15;;;;;;;;;;;;;;;0.41;100.00;99297.13;5114396;28;19935;-78
2021/03/09 03:24:41;;;;;;;;;;;;;;;0.43;100.00;99308.53;5113516;28;19924;-78
2021/03/09 03:27:08;;;;;;;;;;;;;;;0.35;100.00;99295.78;5096800;28;19924;-78
2021/03/09 03:29:35;;;;;;;;;;;;;;;0.36;100.00;99306.41;5114668;28;19924;-77
2021/03/09 03:32:01;;;;;;;;;;;;;;;0.43;100.00;99311.28;5114335;27;20355;-77
2021/03/09 03:34:28;;;;;;;;;;;;;;;0.41;100.00;99297.13;5114002;28;20019;-77
2021/03/09 03:36:55;;;;;;;;;;;;;;;0.48;100.00;99294.53;5094407;28;20015;-77
2021/03/09 03:39:21;;;;;;;;;;;;;;;0.45;100.00;99292.50;5095448;28;19924;-78
2021/03/09 03:41:48;;;;;;;;;;;;;;;0.42;100.00;99288.50;5113755;28;19928;-77
2021/03/09 03:44:14;;;;;;;;;;;;;;;0.42;100.00;99296.75;5113812;28;19931;-77
2021/03/09 03:46:41;;;;;;;;;;;;;;;0.31;100.00;99281.91;5113819;28;20370;-77
2021/03/09 03:49:08;;;;;;;;;;;;;;;0.12;100.00;99287.28;5095786;28;19924;-77
2021/03/09 03:51:38;;;;;;;;;;;;;;;0.05;100.00;99281.56;5114330;28;20264;-78
2021/03/09 03:54:23;;;;;;;;;;;;;;;0.01;100.00;99286.16;5114245;28;20571;-78
2021/03/09 03:56:55;;;;;;;;;;;;;;;-0.02;100.00;99286.88;5114408;28;19924;-77
2021/03/09 03:59:24;;;;;;;;;;;;;;;-0.01;100.00;99280.22;5092686;28;19932;-78
2021/03/09 04:01:52;;;;;;;;;;;;;;;0.05;100.00;99278.81;5092867;28;19924;-77
2021/03/09 04:04:22;;;;;;;;;;;;;;;0.11;100.00;99274.66;5058827;28;19954;-78
2021/03/09 04:06:49;;;;;;;;;;;;;;;0.09;100.00;99277.00;5093788;28;19935;-77
2021/03/09 04:09:16;;;;;;;;;;;;;;;0.00;100.00;99279.09;5092300;28;20276;-78
2021/03/09 04:11:43;;;;;;;;;;;;;;;-0.11;100.00;99283.47;5092533;28;19924;-78
2021/03/09 04:14:12;;;;;;;;;;;;;;;-0.13;100.00;99285.75;5093830;28;19924;-78
2021/03/09 04:16:41;;;;;;;;;;;;;;;-0.07;100.00;99287.91;5092332;28;19924;-77
2021/03/09 04:19:08;;;;;;;;;;;;;;;-0.22;100.00;99294.13;5092123;28;19924;-78
2021/03/09 04:21:36;;;;;;;;;;;;;;;-0.36;100.00;99281.91;5092260;28;19924;-77
2021/03/09 04:24:03;;;;;;;;;;;;;;;-0.45;100.00;99283.97;5093539;28;19924;-78
2021/03/09 04:26:30;;;;;;;;;;;;;;;-0.54;100.00;99286.06;5075443;28;20351;-77
2021/03/09 04:28:57;;;;;;;;;;;;;;;-0.52;100.00;99284.59;5072141;28;19924;-78
2021/03/09 04:31:24;;;;;;;;;;;;;;;-0.57;100.00;99286.75;5087546;28;19924;-78
2021/03/09 04:33:51;;;;;;;;;;;;;;;-0.49;100.00;99285.81;5093226;28;19924;-78
2021/03/09 04:36:17;;;;;;;;;;;;;;;-0.53;100.00;99290.41;5092175;28;19924;-77
2021/03/09 04:38:45;;;;;;;;;;;;;;;-0.57;100.00;99292.22;5093428;28;19931;-77
2021/03/09 04:41:11;;;;;;;;;;;;;;;-0.60;100.00;99293.72;5093544;28;20042;-77
2021/03/09 04:43:38;;;;;;;;;;;;;;;-0.74;100.00;99297.94;5093025;28;19924;-78
2021/03/09 04:46:04;;;;;;;;;;;;;;;-0.83;100.00;99286.28;5071848;28;19929;-77
2021/03/09 04:48:36;;;;;;;;;;;;;;;-0.88;100.00;99292.03;5091306;28;19924;-77
2021/03/09 04:51:05;;;;;;;;;;;;;;;-0.97;100.00;99283.91;5097548;28;20348;-77
2021/03/09 04:53:31;;;;;;;;;;;;;;;-1.04;100.00;99291.09;5097165;28;19924;-78
2021/03/09 04:55:58;;;;;;;;;;;;;;;-1.05;100.00;99289.50;5096117;28;19924;-77
2021/03/09 04:58:26;;;;;;;;;;;;;;;-1.05;100.00;99289.50;5101457;28;19927;-78
2021/03/09 05:00:53;;;;;;;;;;;;;;;-0.90;100.00;99299.78;5117336;28;20424;-77
2021/03/09 05:03:20;;;;;;;;;;;;;;;-0.91;100.00;99298.19;5117048;28;20419;-77
2021/03/09 05:05:46;;;;;;;;;;;;;;;-1.03;100.00;99298.19;5117380;28;19938;-77
2021/03/09 05:08:13;;;;;;;;;;;;;;;-1.09;100.00;99296.81;5099322;28;20484;-78
2021/03/09 05:10:39;;;;;;;;;;;;;;;-1.00;100.00;99305.75;5064210;28;19954;-78
2021/03/09 05:13:06;;;;;;;;;;;;;;;-1.03;100.00;99301.72;5098903;28;19924;-77
2021/03/09 05:15:33;;;;;;;;;;;;;;;-1.04;100.00;99300.13;5117038;28;20367;-77
2021/03/09 05:17:59;;;;;;;;;;;;;;;-1.09;100.00;99305.06;5082081;28;19923;-78
2021/03/09 05:20:26;;;;;;;;;;;;;;;-1.29;100.00;99303.19;5098960;28;20006;-78
2021/03/09 05:22:52;;;;;;;;;;;;;;;-1.21;100.00;99305.03;5117047;28;20359;-78
2021/03/09 05:25:19;;;;;;;;;;;;;;;-1.21;100.00;99305.03;5117075;28;20023;-77
2021/03/09 05:27:49;;;;;;;;;;;;;;;-1.26;100.00;99302.50;5098701;28;19928;-78
2021/03/09 05:30:17;;;;;;;;;;;;;;;-1.18;100.00;99305.13;5117201;28;20294;-77
2021/03/09 05:32:44;;;;;;;;;;;;;;;-1.25;100.00;99302.16;5081676;28;19947;-78
2021/03/09 05:35:11;;;;;;;;;;;;;;;-1.18;100.00;99309.84;5116859;28;19973;-78
2021/03/09 05:37:37;;;;;;;;;;;;;;;-1.16;100.00;99300.13;5116909;28;19924;-77
2021/03/09 05:40:05;;;;;;;;;;;;;;;-1.17;100.00;99300.47;5102447;28;20345;-77
2021/03/09 05:42:32;;;;;;;;;;;;;;;-1.03;100.00;99306.44;5098760;28;20371;-77
2021/03/09 05:44:58;;;;;;;;;;;;;;;-1.15;100.00;99317.38;5098112;28;19969;-77
2021/03/09 05:47:25;;;;;;;;;;;;;;;-1.25;100.00;99310.38;5116572;28;19930;-77
2021/03/09 05:49:51;;;;;;;;;;;;;;;-1.35;100.00;99316.31;5098471;28;19932;-78
2021/03/09 05:52:18;;;;;;;;;;;;;;;-1.42;100.00;99313.31;5098329;28;19923;-77
2021/03/09 05:54:45;;;;;;;;;;;;;;;-1.48;100.00;99316.59;5116252;28;20287;-77
2021/03/09 05:57:11;;;;;;;;;;;;;;;-1.42;100.00;99312.53;5116444;28;20324;-78
2021/03/09 05:59:39;;;;;;;;;;;;;;;-1.38;100.00;99311.50;5115159;28;20287;-77
2021/03/09 06:02:06;;;;;;;;;;;;;;;-1.41;100.00;99311.38;5098118;28;19953;-78
2021/03/09 06:04:33;;;;;;;;;;;;;;;-1.45;100.00;99305.75;5116183;28;19935;-77
2021/03/09 06:07:01;;;;;;;;;;;;;;;-1.46;100.00;99308.84;5116405;28;19927;-77
2021/03/09 06:09:33;;;;;;;;;;;;;;;-1.53;100.00;99314.88;5083993;28;19946;-77
2021/03/09 06:12:09;;;;;;;;;;;;;;;-1.58;100.00;99317.03;5098018;28;19923;-78
2021/03/09 06:14:37;;;;;;;;;;;;;;;-1.63;100.00;99317.22;5080769;28;19986;-78
2021/03/09 06:17:05;;;;;;;;;;;;;;;-1.68;100.00;99314.72;5108527;28;19923;-77
2021/03/09 06:19:43;;;;;;;;;;;;;;;-1.77;100.00;99308.53;5102201;28;20379;-78
2021/03/09 06:22:10;;;;;;;;;;;;;;;-1.82;100.00;99306.78;5115930;28;19923;-77
2021/03/09 06:24:37;;;;;;;;;;;;;;;-1.82;100.00;99312.28;5097810;28;20560;-78
2021/03/09 06:27:21;;;;;;;;;;;;;;;-1.73;100.00;99315.72;5116049;28;20266;-78
2021/03/09 06:29:48;;;;;;;;;;;;;;;-1.60;100.00;99314.63;5115464;28;19935;-77
2021/03/09 06:32:14;;;;;;;;;;;;;;;-1.45;100.00;99310.47;5115931;28;19969;-77
2021/03/09 06:34:42;;;;;;;;;;;;;;;-1.54;100.00;99320.69;5077033;28;19924;-77
2021/03/09 06:37:16;;;;;;;;;;;;;;;-1.61;100.00;99317.69;5087474;28;20278;-77
2021/03/09 06:39:52;;;;;;;;;;;;;;;-1.66;100.00;99318.72;5096992;28;19930;-80
2021/03/09 06:42:36;;;;;;;;;;;;;;;-1.69;100.00;99319.38;5113064;28;19931;-81
2021/03/09 06:45:06;;;;;;;;;;;;;;;-1.61;100.00;99315.78;5097345;28;19942;-80
2021/03/09 06:47:37;;;;;;;;;;;;;;;-1.56;100.00;99321.03;5064385;28;19927;-81
2021/03/09 06:50:08;;;;;;;;;;;;;;;-1.62;100.00;99318.84;5081039;28;19927;-79
2021/03/09 06:52:34;;;;;;;;;;;;;;;-1.48;100.00;99322.88;5097594;28;20263;-81
2021/03/09 06:55:01;;;;;;;;;;;;;;;-1.48;100.00;99322.06;5089726;28;20287;-82
2021/03/09 06:57:28;;;;;;;;;;;;;;;-1.51;100.00;99317.28;5097125;28;19931;-82
2021/03/09 06:59:56;;;;;;;;;;;;;;;-1.45;100.00;99318.69;5079393;28;19985;-82
2021/03/09 07:02:22;;;;;;;;;;;;;;;-1.45;100.00;99319.47;5115227;28;19937;-82
2021/03/09 07:04:50;;;;;;;;;;;;;;;-1.42;100.00;99320.75;5097199;28;20275;-82
2021/03/09 07:07:21;;;;;;;;;;;;;;;-1.45;100.00;99321.44;5097145;28;19947;-81
2021/03/09 07:09:52;;;;;;;;;;;;;;;-1.57;100.00;99324.09;5097358;28;20029;-82
2021/03/09 07:12:19;;;;;;;;;;;;;;;-1.67;100.00;99319.06;5114784;28;20415;-82
2021/03/09 07:14:47;;;;;;;;;;;;;;;-1.66;100.00;99317.91;5096551;28;19930;-82
2021/03/09 07:17:14;;;;;;;;;;;;;;;-1.59;100.00;99320.91;5094189;28;19924;-81
2021/03/09 07:19:42;;;;;;;;;;;;;;;-1.52;100.00;99311.00;5085875;28;19924;-81
2021/03/09 07:22:11;;;;;;;;;;;;;;;-1.52;100.00;99312.94;5114269;28;19924;-81
2021/03/09 07:25:04;;;;;;;;;;;;;;;-1.32;100.00;99314.81;5096779;28;19923;-81
2021/03/09 07:27:36;;;;;;;;;;;;;;;-1.28;100.00;99319.28;5061749;28;20571;-81
2021/03/09 07:30:04;;;;;;;;;;;;;;;-1.12;100.00;99324.94;5096898;28;19935;-81
2021/03/09 07:32:31;;;;;;;;;;;;;;;-1.09;100.00;99324.25;5075987;28;19931;-80
2021/03/09 07:34:59;;;;;;;;;;;;;;;-0.95;100.00;99325.50;5110536;28;19930;-81
2021/03/09 07:37:39;;;;;;;;;;;;;;;-0.77;100.00;99315.09;5114851;28;20017;-81
2021/03/09 07:40:06;;;;;;;;;;;;;;;-0.59;100.00;99328.25;5114961;28;19924;-78
2021/03/09 07:42:33;;;;;;;;;;;;;;;-0.32;100.00;99335.00;5094296;28;19927;-78
2021/03/09 07:45:01;;;;;;;;;;;;;;;-0.02;100.00;99339.06;5066376;28;19924;-77
2021/03/09 07:47:29;;;;;;;;;;;;;;;0.16;100.00;99340.38;5103970;28;19932;-78
2021/03/09 07:49:57;;;;;;;;;;;;;;;0.46;100.00;99341.63;5104012;28;19923;-77
2021/03/09 07:52:25;;;;;;;;;;;;;;;0.68;100.00;99332.81;5108238;28;19920;-77
2021/03/09 07:55:04;;;;;;;;;;;;;;;0.93;100.00;99331.53;5109907;28;20024;-77
2021/03/09 07:57:33;;;;;;;;;;;;;;;1.19;100.00;99331.81;5110320;28;19927;-78
2021/03/09 07:59:59;;;;;;;;;;;;;;;1.36;100.00;99325.94;5107475;28;20457;-77
2021/03/09 08:02:38;;;;;;;;;;;;;;;1.48;100.00;99316.78;5106858;28;19922;-77
2021/03/09 08:05:04;;;;;;;;;;;;;;;2.13;100.00;99323.38;5091864;28;19920;-77
2021/03/09 08:07:50;;;;;;;;;;;;;;;2.46;100.00;99318.16;5084371;28;19920;-78
2021/03/09 08:10:35;;;;;;;;;;;;;;;3.44;100.00;99325.47;5091835;28;19912;-77
2021/03/09 08:13:06;;;;;;;;;;;;;;;4.21;100.00;99318.31;5107415;28;19915;-78
2021/03/09 08:15:33;;;;;;;;;;;;;;;4.92;100.00;99306.88;5109819;28;19927;-75
2021/03/09 08:18:19;;;;;;;;;;;;;;;5.57;100.00;99316.19;5092023;28;19973;-78
2021/03/09 08:20:47;;;;;;;;;;;;;;;6.06;100.00;99298.34;5109984;28;19973;-75
2021/03/09 08:23:32;;;;;;;;;;;;;;;5.98;100.00;99280.88;5066856;28;19969;-75
2021/03/09 08:26:08;;;;;;;;;;;;;;;6.33;100.00;99271.91;5090059;28;19924;-75
2021/03/09 08:28:39;;;;;;;;;;;;;;;6.54;100.00;99269.22;5091414;28;19931;-75
2021/03/09 08:31:11;;;;;;;;;;;;;;;6.83;100.00;99254.22;5090581;28;20455;-75
2021/03/09 08:33:38;;;;;;;;;;;;;;;7.00;100.00;99259.00;5109408;28;19971;-76
2021/03/09 08:36:23;;;;;;;;;;;;;;;7.16;100.00;99254.63;5091199;28;20019;-77
2021/03/09 08:39:08;;;;;;;;;;;;;;;6.97;100.00;99248.66;5090195;28;19923;-76
2021/03/09 08:41:35;;;;;;;;;;;;;;;6.76;100.00;99243.09;5109755;28;20298;-78
2021/03/09 08:44:20;;;;;;;;;;;;;;;6.73;100.00;99241.91;5105966;28;20502;-78
2021/03/09 08:46:53;;;;;;;;;;;;;;;6.86;100.00;99247.88;5085903;28;19924;-78
2021/03/09 08:49:35;;;;;;;;;;;;;;;6.51;100.00;99242.25;5086365;28;19938;-78
2021/03/09 08:52:02;;;;;;;;;;;;;;;6.48;100.00;99237.47;5081921;28;19935;-78
2021/03/09 08:54:30;;;;;;;;;;;;;;;6.46;100.00;99234.28;5047586;28;19924;-78
2021/03/09 08:56:57;;;;;;;;;;;;;;;6.70;100.00;99234.34;5090884;28;19928;-80
2021/03/09 08:59:24;;;;;;;;;;;;;;;6.79;100.00;99225.63;5110444;28;20351;-80
2021/03/09 09:01:52;;;;;;;;;;;;;;;7.20;100.00;99230.44;5092949;28;20005;-81
2021/03/09 09:04:19;;;;;;;;;;;;;;;7.03;100.00;99227.63;5092430;28;19935;-81
2021/03/09 09:06:47;;;;;;;;;;;;;;;6.33;100.00;99224.75;5092785;28;19924;-81
2021/03/09 09:09:28;;;;;;;;;;;;;;;5.65;100.00;99228.34;5092288;28;19963;-81
2021/03/09 09:11:55;;;;;;;;;;;;;;;5.33;100.00;99233.66;5073024;28;19931;-82
2021/03/09 09:14:21;;;;;;;;;;;;;;;5.41;100.00;99231.75;5076808;28;19931;-81
2021/03/09 09:16:48;;;;;;;;;;;;;;;5.33;100.00;99232.88;5110329;28;19924;-81
2021/03/09 09:19:14;;;;;;;;;;;;;;;5.32;100.00;99232.09;5092970;28;19924;-82
2021/03/09 09:21:45;;;;;;;;;;;;;;;5.36;100.00;99243.97;5092153;28;19924;-86
2021/03/09 09:24:19;;;;;;;;;;;;;;;5.24;100.00;99244.28;5110216;28;19969;-86
2021/03/09 09:26:56;;;;;;;;;;;;;;;5.26;100.00;99243.91;5092795;28;19924;-84
2021/03/09 09:29:23;;;;;;;;;;;;;;;5.25;100.00;99237.56;5090098;28;19935;-86
2021/03/09 09:31:57;;;;;;;;;;;;;;;4.83;100.00;99239.97;5076599;28;19972;-88
2021/03/09 09:34:34;;;;;;;;;;;;;;;4.89;100.00;99224.59;5093976;28;20548;-89
2021/03/09 09:37:08;;;;;;;;;;;;;;;4.94;100.00;99227.00;5097478;28;19924;-92
2021/03/09 09:39:35;;;;;;;;;;;;;;;5.02;100.00;99228.69;5080791;28;19923;-87
2021/03/09 09:42:02;;;;;;;;;;;;;;;5.03;100.00;99219.19;5061056;28;19924;-89
2021/03/09 09:44:28;;;;;;;;;;;;;;;5.16;100.00;99217.72;5115071;28;19928;-85
2021/03/09 09:46:55;;;;;;;;;;;;;;;5.17;100.00;99208.22;5063907;28;19923;-89
2021/03/09 09:49:22;;;;;;;;;;;;;;;4.85;100.00;99198.84;5080323;28;19924;-89
2021/03/09 09:51:49;;;;;;;;;;;;;;;4.71;100.00;99201.47;5061080;28;19924;-88
2021/03/09 09:54:17;;;;;;;;;;;;;;;4.82;100.00;99191.31;5095953;28;19924;-91
2021/03/09 09:56:45;;;;;;;;;;;;;;;4.92;100.00;99201.66;5075993;28;19928;-90
2021/03/09 09:59:24;;;;;;;;;;;;;;;5.07;100.00;99192.31;5079222;28;19924;-84
2021/03/09 10:01:51;;;;;;;;;;;;;;;5.20;100.00;99190.84;5097649;28;19931;-88
2021/03/09 10:04:17;;;;;;;;;;;;;;;5.28;100.00;99186.13;5062438;28;19923;-86
2021/03/09 10:06:45;;;;;;;;;;;;;;;5.30;100.00;99181.78;5115572;28;19931;-86
2021/03/09 10:09:20;;;;;;;;;;;;;;;5.50;100.00;99166.47;5079122;28;20637;-87
2021/03/09 10:11:54;;;;;;;;;;;;;;;5.89;100.00;99172.28;5063339;28;19924;-88
2021/03/09 10:14:22;;;;;;;;;;;;;;;5.63;100.00;99164.19;5114644;28;19972;-88
2021/03/09 10:17:17;;;;;;;;;;;;;;;5.60;100.00;99153.88;5062848;28;19930;-89
2021/03/09 10:19:45;;;;;;;;;;;;;;;5.85;100.00;99156.78;5083781;28;20585;-89
2021/03/09 10:22:22;;;;;;;;;;;;;;;5.94;100.00;99158.00;5069126;28;20016;-88
2021/03/09 10:24:49;;;;;;;;;;;;;;;6.18;100.00;99142.66;5075902;28;19989;-89
2021/03/09 10:27:20;;;;;;;;;;;;;;;6.03;100.00;99138.25;5097044;28;19930;-88
2021/03/09 10:29:48;;;;;;;;;;;;;;;5.83;100.00;99151.63;5096637;28;20064;-88
2021/03/09 10:32:16;;;;;;;;;;;;;;;6.04;100.00;99145.38;5091312;28;19928;-82
2021/03/09 10:34:43;;;;;;;;;;;;;;;6.33;100.00;99158.13;5084611;28;19924;-81
2021/03/09 10:37:11;;;;;;;;;;;;;;;6.51;100.00;99158.97;5093336;28;19957;-81
2021/03/09 10:39:39;;;;;;;;;;;;;;;6.72;100.00;99159.78;5094571;28;20393;-82
2021/03/09 10:42:25;;;;;;;;;;;;;;;6.88;100.00;99165.75;5061231;28;20057;-82
2021/03/09 10:44:52;;;;;;;;;;;;;;;7.02;100.00;99156.59;5094453;28;19931;-82
2021/03/09 10:47:18;;;;;;;;;;;;;;;7.22;100.00;99152.22;5113069;28;19982;-82
2021/03/09 10:49:45;;;;;;;;;;;;;;;7.21;100.00;99148.66;5094691;28;19981;-82
2021/03/09 10:52:12;;;;;;;;;;;;;;;7.18;100.00;99154.19;5112159;28;19963;-82
2021/03/09 10:54:40;;;;;;;;;;;;;;;6.87;100.00;99149.47;5077991;28;19928;-82
2021/03/09 10:57:19;;;;;;;;;;;;;;;6.82;100.00;99152.63;5079852;28;19924;-81
2021/03/09 10:59:46;;;;;;;;;;;;;;;6.92;100.00;99158.19;5091142;28;20014;-81
2021/03/09 11:02:38;;;;;;;;;;;;;;;6.99;100.00;99158.22;5092683;28;19973;-81
2021/03/09 11:05:06;;;;;;;;;;;;;;;7.04;100.00;99159.78;5086275;28;20023;-81
2021/03/09 11:07:32;;;;;;;;;;;;;;;6.94;100.00;99163.34;5077300;28;20065;-82
2021/03/09 11:09:59;;;;;;;;;;;;;;;7.15;100.00;99168.91;5107944;28;19923;-81
2021/03/09 11:12:26;;;;;;;;;;;;;;;7.23;100.00;99178.81;5110945;28;19927;-81
2021/03/09 11:14:53;;;;;;;;;;;;;;;7.33;100.00;99178.00;5091869;28;19977;-82
2021/03/09 11:17:20;;;;;;;;;;;;;;;7.18;100.00;99179.22;5076462;28;19935;-82
2021/03/09 11:19:46;;;;;;;;;;;;;;;7.21;100.00;99164.53;5112627;28;19924;-82
2021/03/09 11:22:13;;;;;;;;;;;;;;;7.30;100.00;99162.13;5093677;28;19928;-82
2021/03/09 11:24:39;;;;;;;;;;;;;;;7.38;100.00;99160.94;5094305;28;19931;-82
2021/03/09 11:27:06;;;;;;;;;;;;;;;7.54;100.00;99155.75;5093779;28;19923;-82
2021/03/09 11:29:33;;;;;;;;;;;;;;;7.79;100.00;99150.09;5112013;28;20024;-82
2021/03/09 11:32:00;;;;;;;;;;;;;;;7.98;100.00;99164.31;5077248;28;19984;-83
2021/03/09 11:34:26;;;;;;;;;;;;;;;8.11;100.00;99168.25;5111320;28;20015;-82
2021/03/09 11:36:53;;;;;;;;;;;;;;;8.07;100.00;99152.78;5112086;28;20000;-82
2021/03/09 11:39:20;;;;;;;;;;;;;;;8.02;100.00;99159.56;5094131;28;19953;-82
2021/03/09 11:41:51;;;;;;;;;;;;;;;7.75;100.00;99155.69;5102942;28;19923;-83
2021/03/09 11:44:18;;;;;;;;;;;;;;;7.65;100.00;99155.72;5076585;28;20371;-83
2021/03/09 11:46:45;;;;;;;;;;;;;;;7.58;100.00;99159.31;5111950;28;19924;-83
2021/03/09 11:49:12;;;;;;;;;;;;;;;7.46;100.00;99156.94;5093210;28;20413;-82
2021/03/09 11:51:39;;;;;;;;;;;;;;;7.38;100.00;99164.50;5093023;28;19931;-84
2021/03/09 11:54:06;;;;;;;;;;;;;;;7.49;100.00;99156.16;5101220;28;19928;-85
2021/03/09 11:56:32;;;;;;;;;;;;;;;7.54;100.00;99155.75;5093259;28;19924;-88
2021/03/09 11:58:59;;;;;;;;;;;;;;;7.69;100.00;99156.50;5071008;28;20533;-88
2021/03/09 12:01:25;;;;;;;;;;;;;;;8.02;100.00;99153.19;5052312;28;19966;-89
2021/03/09 12:03:55;;;;;;;;;;;;;;;8.42;100.00;99139.47;5093611;28;19924;-86
2021/03/09 12:06:23;;;;;;;;;;;;;;;8.71;100.00;99140.88;5077437;28;19927;-82
2021/03/09 12:08:50;;;;;;;;;;;;;;;8.74;100.00;99134.47;5093401;28;19930;-84
2021/03/09 12:11:41;;;;;;;;;;;;;;;8.85;100.00;99115.69;5093196;28;19928;-84
2021/03/09 12:14:08;;;;;;;;;;;;;;;8.57;100.00;99124.25;5111073;28;20618;-83
2021/03/09 12:16:34;;;;;;;;;;;;;;;8.44;100.00;99120.38;5092878;28;19924;-83
2021/03/09 12:19:01;;;;;;;;;;;;;;;8.38;100.00;99110.88;5093273;28;19931;-83
2021/03/09 12:21:27;;;;;;;;;;;;;;;8.25;100.00;99111.75;5093184;28;19924;-83
2021/03/09 12:23:54;;;;;;;;;;;;;;;8.27;100.00;99103.78;5076176;28;19931;-83
2021/03/09 12:26:21;;;;;;;;;;;;;;;8.39;100.00;99094.97;5073159;28;19924;-83
2021/03/09 12:28:47;;;;;;;;;;;;;;;8.62;100.00;99097.97;5076056;28;19927;-83
2021/03/09 12:31:14;;;;;;;;;;;;;;;8.76;100.00;99092.28;5092933;28;20405;-83
2021/03/09 12:33:40;;;;;;;;;;;;;;;8.98;100.00;99086.09;5093316;28;20018;-83
2021/03/09 12:36:07;;;;;;;;;;;;;;;9.20;100.00;99078.34;5110028;28;20374;-82
2021/03/09 12:38:34;;;;;;;;;;;;;;;9.33;100.00;99073.03;5107067;28;19931;-82
2021/03/09 12:41:00;;;;;;;;;;;;;;;9.49;100.00;99068.47;5107920;28;20309;-82
2021/03/09 12:43:27;;;;;;;;;;;;;;;9.44;100.00;99065.31;5110225;28;20282;-81
2021/03/09 12:45:54;;;;;;;;;;;;;;;9.51;100.00;99059.66;5111132;28;20263;-80
2021/03/09 12:48:21;;;;;;;;;;;;;;;9.56;100.00;99051.63;5102363;28;20031;-82
2021/03/09 12:50:48;;;;;;;;;;;;;;;9.70;100.00;99048.66;5097250;28;19924;-81
2021/03/09 12:53:15;;;;;;;;;;;;;;;9.52;100.00;99042.53;5111259;28;19955;-83